createdAt,value
2019-03-01T00:01:51.213Z,5.43
2019-03-01T00:04:40.053Z,5.40
2019-03-01T00:07:49.350Z,5.30
2019-03-01T00:10:38.766Z,4.83
2019-03-01T00:13:33.030Z,5.37
2019-03-01T00:16:12.452Z,4.60
2019-03-01T00:18:57.719Z,4.80
2019-03-01T00:21:46.535Z,4.70
2019-03-01T00:24:26.882Z,4.93
2019-03-01T00:27:09.627Z,5.40
2019-03-01T00:29:59.738Z,4.13
2019-03-01T00:32:38.201Z,4.80
2019-03-01T00:35:45.919Z,4.60
2019-03-01T00:38:56.910Z,4.20
2019-03-01T00:41:58.582Z,4.50
2019-03-01T00:44:40.651Z,4.70
2019-03-01T00:47:07.994Z,4.07
2019-03-01T00:49:35.519Z,4.43
2019-03-01T00:52:02.772Z,4.87
2019-03-01T00:54:29.871Z,4.47
2019-03-01T00:56:57.050Z,4.37
2019-03-01T00:59:24.295Z,4.63
2019-03-01T01:01:51.570Z,4.30
2019-03-01T01:04:18.814Z,3.73
2019-03-01T01:06:46.048Z,3.73
2019-03-01T01:09:13.327Z,3.70
2019-03-01T01:11:40.552Z,2.87
2019-03-01T01:14:07.798Z,2.97
2019-03-01T01:16:35.028Z,2.70
2019-03-01T01:19:02.376Z,2.20
2019-03-01T01:21:29.607Z,2.30
2019-03-01T01:23:56.820Z,2.00
2019-03-01T01:26:23.997Z,2.33
2019-03-01T01:28:51.256Z,2.83
2019-03-01T01:31:18.495Z,2.00
2019-03-01T01:33:45.837Z,2.70
2019-03-01T01:36:13.081Z,2.20
2019-03-01T01:38:40.355Z,1.93
2019-03-01T01:41:07.520Z,1.90
2019-03-01T01:43:34.739Z,1.60
2019-03-01T01:46:02.005Z,2.10
2019-03-01T01:48:29.125Z,1.73
2019-03-01T01:50:56.266Z,1.57
2019-03-01T01:53:23.628Z,1.90
2019-03-01T01:55:50.763Z,1.60
2019-03-01T01:58:18.027Z,2.10
2019-03-01T02:00:45.249Z,2.37
2019-03-01T02:03:12.491Z,1.70
2019-03-01T02:05:39.853Z,1.67
2019-03-01T02:08:07.120Z,1.67
2019-03-01T02:10:34.277Z,1.90
2019-03-01T02:13:01.510Z,1.60
2019-03-01T02:15:28.781Z,1.63
2019-03-01T02:17:55.919Z,1.50
2019-03-01T02:20:23.156Z,1.77
2019-03-01T02:22:50.327Z,1.67
2019-03-01T02:25:17.674Z,1.50
2019-03-01T02:27:44.948Z,1.60
2019-03-01T02:30:14.716Z,1.30
2019-03-01T02:32:46.430Z,1.50
2019-03-01T02:35:24.182Z,1.30
2019-03-01T02:37:51.513Z,1.57
2019-03-01T02:40:18.871Z,1.50
2019-03-01T02:42:46.141Z,1.17
2019-03-01T02:45:15.088Z,1.63
2019-03-01T02:47:42.302Z,1.23
2019-03-01T02:50:10.031Z,1.50
2019-03-01T02:52:37.274Z,1.50
2019-03-01T02:55:04.763Z,1.23
2019-03-01T02:57:32.005Z,1.40
2019-03-01T02:59:59.167Z,1.33
2019-03-01T03:02:26.412Z,1.20
2019-03-01T03:04:53.562Z,1.40
2019-03-01T03:07:28.871Z,1.60
2019-03-01T03:09:56.006Z,1.53
2019-03-01T03:12:23.228Z,1.60
2019-03-01T03:14:50.492Z,1.43
2019-03-01T03:17:17.735Z,1.20
2019-03-01T03:19:44.914Z,1.23
2019-03-01T03:22:12.145Z,2.10
2019-03-01T03:24:39.359Z,1.50
2019-03-01T03:27:06.630Z,1.47
2019-03-01T03:29:33.877Z,1.30
2019-03-01T03:32:01.247Z,1.47
2019-03-01T03:34:28.598Z,1.40
2019-03-01T03:36:55.862Z,1.57
2019-03-01T03:39:23.096Z,1.23
2019-03-01T03:41:50.454Z,1.60
2019-03-01T03:44:17.582Z,1.50
2019-03-01T03:46:44.858Z,1.20
2019-03-01T03:49:12.094Z,1.20
2019-03-01T03:51:39.423Z,1.50
2019-03-01T03:54:06.767Z,1.50
2019-03-01T03:56:34.043Z,1.47
2019-03-01T03:59:01.270Z,1.57
2019-03-01T04:01:28.522Z,1.63
2019-03-01T04:03:55.802Z,1.50
2019-03-01T04:06:23.041Z,1.60
2019-03-01T04:08:50.415Z,1.23
2019-03-01T04:11:17.751Z,1.13
2019-03-01T04:13:44.878Z,1.53
2019-03-01T04:16:12.121Z,1.50
2019-03-01T04:18:39.258Z,1.43
2019-03-01T04:21:06.538Z,1.20
2019-03-01T04:23:33.781Z,1.27
2019-03-01T04:26:00.932Z,1.27
2019-03-01T04:28:28.216Z,1.70
2019-03-01T04:30:55.438Z,1.40
2019-03-01T04:33:22.563Z,1.40
2019-03-01T04:35:49.845Z,1.30
2019-03-01T04:38:17.013Z,1.17
2019-03-01T04:40:44.269Z,1.30
2019-03-01T04:43:11.416Z,1.20
2019-03-01T04:45:38.664Z,1.50
2019-03-01T04:48:05.957Z,1.10
2019-03-01T04:50:33.114Z,1.20
2019-03-01T04:53:00.498Z,1.40
2019-03-01T04:55:27.746Z,1.23
2019-03-01T04:57:55.033Z,1.10
2019-03-01T05:00:22.855Z,1.23
2019-03-01T05:02:49.983Z,1.30
2019-03-01T05:05:17.324Z,1.43
2019-03-01T05:07:44.554Z,1.60
2019-03-01T05:10:11.810Z,1.27
2019-03-01T05:12:39.161Z,1.67
2019-03-01T05:15:07.695Z,1.30
2019-03-01T05:17:34.957Z,1.80
2019-03-01T05:20:02.165Z,1.27
2019-03-01T05:22:29.321Z,1.10
2019-03-01T05:24:56.559Z,1.03
2019-03-01T05:27:23.852Z,1.13
2019-03-01T05:29:51.078Z,1.40
2019-03-01T05:32:18.293Z,1.13
2019-03-01T05:34:45.541Z,1.40
2019-03-01T05:37:12.845Z,1.10
2019-03-01T05:39:40.109Z,1.10
2019-03-01T05:42:07.378Z,1.10
2019-03-01T05:44:34.608Z,1.30
2019-03-01T05:47:01.766Z,1.03
2019-03-01T05:49:29.043Z,1.10
2019-03-01T05:51:56.236Z,0.90
2019-03-01T05:54:23.401Z,1.00
2019-03-01T05:56:50.671Z,0.70
2019-03-01T05:59:23.086Z,1.00
2019-03-01T06:02:21.208Z,0.80
2019-03-01T06:04:57.470Z,0.90
2019-03-01T06:07:55.142Z,0.90
2019-03-01T06:11:07.414Z,0.80
2019-03-01T06:13:53.824Z,0.80
2019-03-01T06:17:15.152Z,0.93
2019-03-01T06:20:23.122Z,0.90
2019-03-01T06:23:18.123Z,1.10
2019-03-01T06:26:08.544Z,1.30
2019-03-01T06:29:19.502Z,0.97
2019-03-01T06:32:14.083Z,0.90
2019-03-01T06:35:25.838Z,0.97
2019-03-01T06:39:18.068Z,1.03
2019-03-01T06:42:41.555Z,0.87
2019-03-01T06:45:41.853Z,0.80
2019-03-01T06:48:12.710Z,1.13
2019-03-01T06:50:47.631Z,1.03
2019-03-01T06:53:14.942Z,1.20
2019-03-01T06:55:47.266Z,0.90
2019-03-01T06:58:38.031Z,0.90
2019-03-01T07:01:23.520Z,0.80
2019-03-01T07:03:58.389Z,0.90
2019-03-01T07:06:25.658Z,1.00
2019-03-01T07:08:52.994Z,1.13
2019-03-01T07:11:20.228Z,1.30
2019-03-01T07:13:47.490Z,0.90
2019-03-01T07:16:14.769Z,0.80
2019-03-01T07:18:42.098Z,1.00
2019-03-01T07:21:09.329Z,1.10
2019-03-01T07:23:37.220Z,1.00
2019-03-01T07:26:04.639Z,1.07
2019-03-01T07:28:31.908Z,0.97
2019-03-01T07:30:59.826Z,0.90
2019-03-01T07:33:27.180Z,1.20
2019-03-01T07:35:54.443Z,0.90
2019-03-01T07:38:21.755Z,1.13
2019-03-01T07:40:48.891Z,0.80
2019-03-01T07:43:16.047Z,1.20
2019-03-01T07:45:43.193Z,1.00
2019-03-01T07:48:10.458Z,1.00
2019-03-01T07:50:37.609Z,1.00
2019-03-01T07:53:04.905Z,0.93
2019-03-01T07:55:32.219Z,0.87
2019-03-01T07:57:59.390Z,1.03
2019-03-01T08:00:26.622Z,0.90
2019-03-01T08:02:53.773Z,1.17
2019-03-01T08:05:21.093Z,0.90
2019-03-01T08:07:55.750Z,1.07
2019-03-01T08:10:22.522Z,0.90
2019-03-01T08:12:47.443Z,0.93
2019-03-01T08:15:15.238Z,0.97
2019-03-01T08:17:42.488Z,0.80
2019-03-01T08:20:11.710Z,0.83
2019-03-01T08:22:48.031Z,1.10
2019-03-01T08:25:08.992Z,0.80
2019-03-01T08:27:36.142Z,0.80
2019-03-01T08:30:06.985Z,0.70
2019-03-01T08:32:33.425Z,0.90
2019-03-01T08:35:00.758Z,0.80
2019-03-01T08:37:28.152Z,0.60
2019-03-01T08:39:55.382Z,0.80
2019-03-01T08:42:22.614Z,0.80
2019-03-01T08:44:49.846Z,0.70
2019-03-01T08:47:23.316Z,0.90
2019-03-01T08:49:46.195Z,0.80
2019-03-01T08:52:13.317Z,0.80
2019-03-01T08:54:40.613Z,0.70
2019-03-01T08:57:07.907Z,0.80
2019-03-01T08:59:35.024Z,0.80
2019-03-01T09:02:02.305Z,0.80
2019-03-01T09:04:29.543Z,0.90
2019-03-01T09:06:56.822Z,0.67
2019-03-01T09:09:24.071Z,0.80
2019-03-01T09:11:51.381Z,0.80
2019-03-01T09:14:18.637Z,0.87
2019-03-01T09:16:45.793Z,0.90
2019-03-01T09:19:13.045Z,0.90
2019-03-01T09:21:40.383Z,0.87
2019-03-01T09:24:07.579Z,1.00
2019-03-01T09:26:35.671Z,0.90
2019-03-01T09:29:03.197Z,0.87
2019-03-01T09:31:30.507Z,0.80
2019-03-01T09:33:57.739Z,1.00
2019-03-01T09:36:37.632Z,0.80
2019-03-01T09:39:07.394Z,0.90
2019-03-01T09:41:36.658Z,0.90
2019-03-01T09:44:03.807Z,1.30
2019-03-01T09:46:31.192Z,0.80
2019-03-01T09:48:58.322Z,0.60
2019-03-01T09:51:26.706Z,0.90
2019-03-01T09:53:53.980Z,0.83
2019-03-01T09:56:21.266Z,0.63
2019-03-01T09:58:48.946Z,0.90
2019-03-01T10:01:17.434Z,0.77
2019-03-01T10:03:45.216Z,0.80
2019-03-01T10:06:12.397Z,0.80
2019-03-01T10:08:39.664Z,0.80
2019-03-01T10:11:06.922Z,0.80
2019-03-01T10:16:01.216Z,0.77
2019-03-01T10:18:28.416Z,0.60
2019-03-01T10:20:55.637Z,0.70
2019-03-01T10:23:22.865Z,0.70
2019-03-01T10:25:50.135Z,0.70
2019-03-01T10:28:17.384Z,0.80
2019-03-01T10:30:44.616Z,0.63
2019-03-01T10:33:11.904Z,0.70
2019-03-01T10:35:39.191Z,0.80
2019-03-01T10:38:06.442Z,0.70
2019-03-01T10:40:33.723Z,0.70
2019-03-01T10:43:00.991Z,0.70
2019-03-01T10:45:28.445Z,0.70
2019-03-01T10:47:55.706Z,0.70
2019-03-01T10:50:22.889Z,0.70
2019-03-01T10:52:50.118Z,0.60
2019-03-01T10:55:17.396Z,0.60
2019-03-01T10:57:44.887Z,0.50
2019-03-01T11:00:15.523Z,0.57
2019-03-01T11:02:42.815Z,0.60
2019-03-01T11:05:09.940Z,0.63
2019-03-01T11:07:37.086Z,0.50
2019-03-01T11:10:05.254Z,0.60
2019-03-01T11:12:32.540Z,0.60
2019-03-01T11:14:59.783Z,0.63
2019-03-01T11:17:27.064Z,0.60
2019-03-01T11:19:54.289Z,0.43
2019-03-01T11:22:21.574Z,0.60
2019-03-01T11:24:49.536Z,0.70
2019-03-01T11:27:16.684Z,0.70
2019-03-01T11:29:43.804Z,0.50
2019-03-01T11:32:11.062Z,0.60
2019-03-01T11:34:38.306Z,0.60
2019-03-01T11:37:05.585Z,0.50
2019-03-01T11:39:32.750Z,0.50
2019-03-01T11:41:59.991Z,0.70
2019-03-01T11:44:27.275Z,0.60
2019-03-01T11:46:54.549Z,0.60
2019-03-01T11:49:21.796Z,0.50
2019-03-01T11:51:49.179Z,0.50
2019-03-01T11:54:16.481Z,0.50
2019-03-01T11:56:43.711Z,0.55
2019-03-01T11:59:10.984Z,0.60
2019-03-01T12:01:38.235Z,0.50
2019-03-01T12:04:05.514Z,0.50
2019-03-01T12:06:32.781Z,0.53
2019-03-01T12:08:59.999Z,0.60
2019-03-01T12:11:27.276Z,0.50
2019-03-01T12:13:54.547Z,0.50
2019-03-01T12:16:21.703Z,0.50
2019-03-01T12:18:48.886Z,0.50
2019-03-01T12:21:16.035Z,0.60
2019-03-01T12:23:43.199Z,0.65
2019-03-01T12:26:10.456Z,0.47
2019-03-01T12:28:37.706Z,0.50
2019-03-01T12:31:04.948Z,0.47
2019-03-01T12:33:32.130Z,0.50
2019-03-01T12:35:59.381Z,0.50
2019-03-01T12:38:26.701Z,0.60
2019-03-01T12:40:53.957Z,0.57
2019-03-01T12:43:21.320Z,0.50
2019-03-01T12:45:48.493Z,0.40
2019-03-01T12:48:15.767Z,0.50
2019-03-01T12:50:42.917Z,0.50
2019-03-01T12:53:10.196Z,0.50
2019-03-01T12:55:37.463Z,0.50
2019-03-01T12:58:04.707Z,0.50
2019-03-01T13:00:31.985Z,0.60
2019-03-01T13:02:59.245Z,0.57
2019-03-01T13:05:29.210Z,0.50
2019-03-01T13:07:55.659Z,0.50
2019-03-01T13:10:24.618Z,0.60
2019-03-01T13:12:51.857Z,0.60
2019-03-01T13:15:19.147Z,0.60
2019-03-01T13:17:46.381Z,0.70
2019-03-01T13:20:14.501Z,0.50
2019-03-01T13:22:41.746Z,0.50
2019-03-01T13:25:09.092Z,0.60
2019-03-01T13:27:36.230Z,0.50
2019-03-01T13:30:04.086Z,0.60
2019-03-01T13:32:31.312Z,0.57
2019-03-01T13:34:58.427Z,0.60
2019-03-01T13:37:25.682Z,0.50
2019-03-01T13:39:52.827Z,0.50
2019-03-01T13:42:20.124Z,0.50
2019-03-01T13:44:47.472Z,0.62
2019-03-01T13:47:14.621Z,0.60
2019-03-01T13:49:41.884Z,0.50
2019-03-01T13:52:09.043Z,0.57
2019-03-01T13:54:36.321Z,0.55
2019-03-01T13:57:03.703Z,0.50
2019-03-01T13:59:30.863Z,0.57
2019-03-01T14:01:58.199Z,0.50
2019-03-01T14:04:25.497Z,0.57
2019-03-01T14:06:52.873Z,0.60
2019-03-01T14:09:20.036Z,0.70
2019-03-01T14:11:47.283Z,0.60
2019-03-01T14:14:14.528Z,0.57
2019-03-01T14:16:41.753Z,0.60
2019-03-01T14:19:08.940Z,0.40
2019-03-01T14:21:36.178Z,0.50
2019-03-01T14:24:03.641Z,0.60
2019-03-01T14:26:30.767Z,0.50
2019-03-01T14:28:57.929Z,0.60
2019-03-01T14:31:25.080Z,0.60
2019-03-01T14:33:52.363Z,0.60
2019-03-01T14:36:19.593Z,0.67
2019-03-01T14:38:46.863Z,0.50
2019-03-01T14:41:14.074Z,0.57
2019-03-01T14:43:41.256Z,0.60
2019-03-01T14:46:08.519Z,0.70
2019-03-01T14:48:35.743Z,0.70
2019-03-01T14:51:03.032Z,0.70
2019-03-01T14:53:31.173Z,0.70
2019-03-01T14:56:09.156Z,0.70
2019-03-01T14:58:43.799Z,0.77
2019-03-01T15:01:38.274Z,0.60
2019-03-01T15:04:05.573Z,0.60
2019-03-01T15:06:32.686Z,0.60
2019-03-01T15:08:59.830Z,0.63
2019-03-01T15:11:26.981Z,0.60
2019-03-01T15:13:54.794Z,0.60
2019-03-01T15:16:22.053Z,0.70
2019-03-01T15:18:49.278Z,0.60
2019-03-01T15:21:16.428Z,0.53
2019-03-01T15:23:43.675Z,0.60
2019-03-01T15:26:10.918Z,0.70
2019-03-01T15:28:56.163Z,2.23
2019-03-01T15:31:23.314Z,1.20
2019-03-01T15:33:50.569Z,1.30
2019-03-01T15:36:19.072Z,3.53
2019-03-01T15:38:46.573Z,1.70
2019-03-01T15:41:13.823Z,1.80
2019-03-01T15:43:41.227Z,1.30
2019-03-01T15:46:08.372Z,1.07
2019-03-01T15:48:38.118Z,1.00
2019-03-01T15:51:06.713Z,0.90
2019-03-01T15:53:33.939Z,1.17
2019-03-01T15:56:02.209Z,0.80
2019-03-01T15:58:33.014Z,0.97
2019-03-01T16:00:59.639Z,1.00
2019-03-01T16:03:26.917Z,0.93
2019-03-01T16:05:54.158Z,0.90
2019-03-01T16:08:21.420Z,1.00
2019-03-01T16:10:48.752Z,1.10
2019-03-01T16:13:16.001Z,1.10
2019-03-01T16:15:43.264Z,0.90
2019-03-01T16:18:10.540Z,1.07
2019-03-01T16:20:37.778Z,1.40
2019-03-01T16:23:04.932Z,2.03
2019-03-01T16:25:32.202Z,1.40
2019-03-01T16:27:59.414Z,1.70
2019-03-01T16:30:26.691Z,2.00
2019-03-01T16:32:54.071Z,1.20
2019-03-01T16:35:21.228Z,1.30
2019-03-01T16:37:49.693Z,1.00
2019-03-01T16:40:16.965Z,1.50
2019-03-01T16:42:44.254Z,1.67
2019-03-01T16:45:11.650Z,2.57
2019-03-01T16:47:42.087Z,1.83
2019-03-01T16:50:10.068Z,1.80
2019-03-01T16:52:37.493Z,1.80
2019-03-01T16:55:05.121Z,1.40
2019-03-01T16:57:32.379Z,1.43
2019-03-01T16:59:59.614Z,1.40
2019-03-01T17:02:26.888Z,1.30
2019-03-01T17:04:54.133Z,1.33
2019-03-01T17:07:21.568Z,1.30
2019-03-01T17:09:51.332Z,1.30
2019-03-01T17:12:19.701Z,1.20
2019-03-01T17:14:46.988Z,1.30
2019-03-01T17:17:14.235Z,1.50
2019-03-01T17:19:41.545Z,1.60
2019-03-01T17:22:08.917Z,2.30
2019-03-01T17:24:36.178Z,5.40
2019-03-01T17:27:05.783Z,3.77
2019-03-01T17:29:35.728Z,3.97
2019-03-01T17:32:01.988Z,3.10
2019-03-01T17:34:29.960Z,2.00
2019-03-01T17:36:57.224Z,3.70
2019-03-01T17:39:25.208Z,1.90
2019-03-01T17:41:52.595Z,2.00
2019-03-01T17:44:19.740Z,1.90
2019-03-01T17:46:47.008Z,1.30
2019-03-01T17:49:14.269Z,1.37
2019-03-01T17:51:41.534Z,1.40
2019-03-01T17:54:08.809Z,1.40
2019-03-01T17:56:36.703Z,1.40
2019-03-01T17:59:04.017Z,1.60
2019-03-01T18:01:31.407Z,1.57
2019-03-01T18:04:01.915Z,1.50
2019-03-01T18:06:27.803Z,1.53
2019-03-01T18:08:55.018Z,1.43
2019-03-01T18:11:22.199Z,1.50
2019-03-01T18:13:49.539Z,1.97
2019-03-01T18:16:16.911Z,1.83
2019-03-01T18:18:48.775Z,1.70
2019-03-01T18:21:13.971Z,1.83
2019-03-01T18:23:41.401Z,2.83
2019-03-01T18:26:08.780Z,2.20
2019-03-01T18:28:36.039Z,2.37
2019-03-01T18:31:03.297Z,1.90
2019-03-01T18:33:30.455Z,2.03
2019-03-01T18:35:57.581Z,2.20
2019-03-01T18:38:27.651Z,1.93
2019-03-01T18:40:54.470Z,2.20
2019-03-01T18:43:21.712Z,2.40
2019-03-01T18:45:48.994Z,2.40
2019-03-01T18:48:16.241Z,2.40
2019-03-01T18:50:43.543Z,2.27
2019-03-01T18:53:10.710Z,2.30
2019-03-01T18:55:37.985Z,1.97
2019-03-01T18:58:05.136Z,1.90
2019-03-01T19:00:35.632Z,1.80
2019-03-01T19:03:04.376Z,1.90
2019-03-01T19:05:32.307Z,1.73
2019-03-01T19:08:00.825Z,1.90
2019-03-01T19:10:28.805Z,1.90
2019-03-01T19:12:56.175Z,2.00
2019-03-01T19:15:23.511Z,1.90
2019-03-01T19:17:50.816Z,1.50
2019-03-01T19:20:20.409Z,1.40
2019-03-01T19:22:47.749Z,1.50
2019-03-01T19:25:15.401Z,1.90
2019-03-01T19:27:42.799Z,1.90
2019-03-01T19:30:13.558Z,1.80
2019-03-01T19:32:41.719Z,1.40
2019-03-01T19:35:09.113Z,1.60
2019-03-01T19:37:36.481Z,1.77
2019-03-01T19:40:04.497Z,1.70
2019-03-01T19:42:33.063Z,1.80
2019-03-01T19:45:04.705Z,1.50
2019-03-01T19:47:30.256Z,1.60
2019-03-01T19:49:59.287Z,1.30
2019-03-01T19:52:26.696Z,1.50
2019-03-01T19:54:54.074Z,1.47
2019-03-01T19:57:21.338Z,1.67
2019-03-01T19:59:49.629Z,1.97
2019-03-01T20:02:17.685Z,1.90
2019-03-01T20:04:44.969Z,1.97
2019-03-01T20:07:12.212Z,1.77
2019-03-01T20:09:39.748Z,2.07
2019-03-01T20:12:07.790Z,1.97
2019-03-01T20:14:35.075Z,2.40
2019-03-01T20:17:02.371Z,2.10
2019-03-01T20:19:29.612Z,2.40
2019-03-01T20:21:56.881Z,2.43
2019-03-01T20:24:24.061Z,2.30
2019-03-01T20:26:51.286Z,1.90
2019-03-01T20:29:18.545Z,2.40
2019-03-01T20:31:45.761Z,2.33
2019-03-01T20:34:13.051Z,2.20
2019-03-01T20:36:41.742Z,2.47
2019-03-01T20:39:11.672Z,2.33
2019-03-01T20:41:40.072Z,2.10
2019-03-01T20:44:07.482Z,2.80
2019-03-01T20:46:34.750Z,2.47
2019-03-01T20:49:03.836Z,2.40
2019-03-01T20:51:31.167Z,2.70
2019-03-01T20:53:58.553Z,2.87
2019-03-01T20:56:25.820Z,2.77
2019-03-01T20:58:53.159Z,2.77
2019-03-01T21:01:20.428Z,3.07
2019-03-01T21:03:47.678Z,2.60
2019-03-01T21:06:14.962Z,2.73
2019-03-01T21:08:42.316Z,2.47
2019-03-01T21:11:10.243Z,3.00
2019-03-01T21:13:37.624Z,3.20
2019-03-01T21:16:04.876Z,2.57
2019-03-01T21:18:34.177Z,3.00
2019-03-01T21:21:01.272Z,2.83
2019-03-01T21:23:28.431Z,3.43
2019-03-01T21:25:55.675Z,3.23
2019-03-01T21:28:23.012Z,3.13
2019-03-01T21:30:50.361Z,3.40
2019-03-01T21:33:17.590Z,3.40
2019-03-01T21:35:47.845Z,3.33
2019-03-01T21:38:14.707Z,3.27
2019-03-01T21:40:41.990Z,3.47
2019-03-01T21:43:09.196Z,3.83
2019-03-01T21:45:37.293Z,3.50
2019-03-01T21:48:04.466Z,3.70
2019-03-01T21:50:31.697Z,3.40
2019-03-01T21:53:01.725Z,3.40
2019-03-01T21:55:28.937Z,3.40
2019-03-01T21:57:56.941Z,3.20
2019-03-01T22:00:25.359Z,3.80
2019-03-01T22:02:54.325Z,3.90
2019-03-01T22:05:21.727Z,3.33
2019-03-01T22:07:48.973Z,4.00
2019-03-01T22:10:16.279Z,3.97
2019-03-01T22:12:43.513Z,4.47
2019-03-01T22:15:12.985Z,3.90
2019-03-01T22:17:40.234Z,3.80
2019-03-01T22:20:08.999Z,4.03
2019-03-01T22:22:37.528Z,4.23
2019-03-01T22:25:05.335Z,4.67
2019-03-01T22:27:32.585Z,4.80
2019-03-01T22:29:59.711Z,4.63
2019-03-01T22:32:26.974Z,4.97
2019-03-01T22:34:54.232Z,5.17
2019-03-01T22:37:24.777Z,4.83
2019-03-01T22:39:51.473Z,5.03
2019-03-01T22:42:18.770Z,4.60
2019-03-01T22:44:46.250Z,5.13
2019-03-01T22:47:13.399Z,4.87
2019-03-01T22:49:40.689Z,5.40
2019-03-01T22:52:07.939Z,4.60
2019-03-01T22:54:35.282Z,4.33
2019-03-01T22:57:02.570Z,4.93
2019-03-01T22:59:29.713Z,4.90
2019-03-01T23:02:01.033Z,4.93
2019-03-01T23:04:29.460Z,5.23
2019-03-01T23:06:56.706Z,5.53
2019-03-01T23:09:24.181Z,4.73
2019-03-01T23:11:51.462Z,4.90
2019-03-01T23:14:18.702Z,5.13
2019-03-01T23:16:45.911Z,5.53
2019-03-01T23:19:16.216Z,5.27
2019-03-01T23:21:42.235Z,4.80
2019-03-01T23:24:09.378Z,4.67
2019-03-01T23:26:36.623Z,5.50
2019-03-01T23:29:03.898Z,4.67
2019-03-01T23:31:31.070Z,4.53
2019-03-01T23:33:58.230Z,4.90
2019-03-01T23:36:28.443Z,5.27
2019-03-01T23:38:54.561Z,5.13
2019-03-01T23:41:21.823Z,5.60
2019-03-01T23:43:49.096Z,4.90
2019-03-01T23:46:16.238Z,5.07
2019-03-01T23:48:45.500Z,5.13
2019-03-01T23:51:12.550Z,4.93
2019-03-01T23:53:40.719Z,4.87
2019-03-01T23:56:07.850Z,4.90
2019-03-01T23:58:35.086Z,4.80
